createdAt,value
2023-03-01T00:01:40.312Z,0.88
2023-03-01T00:04:07.137Z,0.88
2023-03-01T00:06:33.990Z,0.87
2023-03-01T00:09:00.771Z,0.97
2023-03-01T00:11:29.983Z,0.94
2023-03-01T00:13:59.864Z,0.79
2023-03-01T00:16:32.976Z,0.83
2023-03-01T00:19:09.341Z,0.81
2023-03-01T00:21:36.303Z,0.81
2023-03-01T00:24:03.642Z,0.84
2023-03-01T00:26:31.084Z,0.92
2023-03-01T00:28:59.491Z,1.01
2023-03-01T00:31:30.182Z,0.93
2023-03-01T00:33:58.802Z,0.95
2023-03-01T00:36:33.376Z,0.89
2023-03-01T00:39:02.964Z,0.91
2023-03-01T00:41:29.719Z,0.84
2023-03-01T00:43:58.948Z,0.86
2023-03-01T00:46:27.933Z,0.86
2023-03-01T00:48:55.135Z,0.92
2023-03-01T00:51:27.550Z,0.99
2023-03-01T00:53:57.693Z,0.85
2023-03-01T00:56:30.310Z,0.83
2023-03-01T00:59:03.081Z,0.83
2023-03-01T01:01:31.580Z,0.87
2023-03-01T01:04:07.951Z,0.86
2023-03-01T01:06:39.152Z,0.84
2023-03-01T01:09:07.802Z,0.87
2023-03-01T01:11:36.410Z,0.87
2023-03-01T01:14:03.924Z,0.85
2023-03-01T01:16:31.036Z,0.86
2023-03-01T01:18:58.731Z,0.84
2023-03-01T01:21:27.148Z,0.87
2023-03-01T01:23:54.291Z,0.89
2023-03-01T01:26:22.391Z,0.91
2023-03-01T01:28:49.428Z,0.95
2023-03-01T01:31:16.784Z,0.98
2023-03-01T01:33:45.317Z,1.06
2023-03-01T01:36:12.451Z,1.03
2023-03-01T01:38:40.242Z,1.05
2023-03-01T01:41:08.354Z,0.97
2023-03-01T01:43:38.447Z,0.99
2023-03-01T01:46:32.984Z,0.98
2023-03-01T01:49:28.005Z,1.03
2023-03-01T01:52:08.202Z,1.09
2023-03-01T01:54:48.033Z,1.02
2023-03-01T01:57:22.988Z,1.04
2023-03-01T01:59:54.547Z,1.11
2023-03-01T02:02:21.822Z,1.09
2023-03-01T02:04:56.821Z,1.06
2023-03-01T02:07:25.558Z,1.07
2023-03-01T02:09:53.863Z,1.08
2023-03-01T02:12:24.454Z,1.12
2023-03-01T02:14:51.205Z,1.08
2023-03-01T02:17:19.404Z,1.13
2023-03-01T02:20:18.897Z,1.02
2023-03-01T02:22:47.546Z,1.14
2023-03-01T02:25:20.306Z,1.00
2023-03-01T02:28:06.994Z,1.06
2023-03-01T02:30:36.898Z,1.09
2023-03-01T02:33:04.958Z,1.13
2023-03-01T02:35:36.216Z,1.09
2023-03-01T02:38:04.707Z,1.08
2023-03-01T02:40:35.811Z,1.18
2023-03-01T02:43:05.329Z,1.18
2023-03-01T02:45:31.902Z,1.14
2023-03-01T02:47:58.803Z,1.24
2023-03-01T02:50:31.475Z,1.22
2023-03-01T02:53:30.089Z,1.19
2023-03-01T02:55:56.830Z,1.20
2023-03-01T02:58:26.789Z,1.23
2023-03-01T03:00:53.625Z,1.28
2023-03-01T03:03:22.356Z,1.23
2023-03-01T03:05:55.984Z,1.22
2023-03-01T03:08:25.601Z,1.20
2023-03-01T03:10:52.333Z,1.20
2023-03-01T03:13:20.216Z,1.22
2023-03-01T03:15:46.982Z,1.19
2023-03-01T03:18:17.931Z,1.19
2023-03-01T03:20:45.686Z,1.17
2023-03-01T03:23:13.516Z,1.23
2023-03-01T03:25:40.477Z,1.19
2023-03-01T03:28:11.034Z,1.21
2023-03-01T03:30:40.288Z,1.21
2023-03-01T03:33:16.061Z,1.19
2023-03-01T03:35:47.847Z,1.20
2023-03-01T03:38:17.116Z,1.21
2023-03-01T03:40:48.893Z,1.23
2023-03-01T03:43:20.093Z,1.23
2023-03-01T03:45:48.002Z,1.28
2023-03-01T03:48:18.759Z,1.28
2023-03-01T03:50:56.896Z,1.19
2023-03-01T03:53:25.222Z,1.25
2023-03-01T03:55:52.760Z,1.24
2023-03-01T03:58:24.142Z,1.26
2023-03-01T04:00:58.300Z,1.26
2023-03-01T04:03:27.057Z,1.25
2023-03-01T04:05:54.005Z,1.27
2023-03-01T04:08:23.060Z,1.23
2023-03-01T04:10:52.352Z,1.29
2023-03-01T04:13:21.929Z,1.34
2023-03-01T04:15:56.108Z,1.37
2023-03-01T04:18:38.582Z,1.37
2023-03-01T04:21:05.440Z,1.37
2023-03-01T04:23:32.110Z,1.35
2023-03-01T04:25:59.865Z,1.35
2023-03-01T04:28:47.158Z,1.33
2023-03-01T04:31:19.466Z,1.34
2023-03-01T04:33:47.850Z,1.32
2023-03-01T04:36:16.949Z,1.39
2023-03-01T04:38:48.455Z,1.41
2023-03-01T04:41:19.552Z,1.36
2023-03-01T04:43:46.632Z,1.41
2023-03-01T04:46:20.813Z,1.40
2023-03-01T04:48:48.524Z,1.39
2023-03-01T04:51:19.693Z,1.38
2023-03-01T04:53:46.348Z,1.41
2023-03-01T04:56:18.814Z,1.42
2023-03-01T04:58:45.934Z,1.46
2023-03-01T05:01:21.900Z,1.42
2023-03-01T05:03:53.128Z,1.42
2023-03-01T05:06:21.491Z,1.48
2023-03-01T05:08:48.605Z,1.43
2023-03-01T05:11:15.237Z,1.43
2023-03-01T05:13:44.402Z,1.50
2023-03-01T05:16:12.710Z,1.49
2023-03-01T05:18:40.584Z,1.51
2023-03-01T05:21:09.817Z,1.46
2023-03-01T05:23:37.298Z,1.49
2023-03-01T05:26:11.330Z,1.52
2023-03-01T05:28:41.355Z,1.55
2023-03-01T05:31:10.741Z,1.57
2023-03-01T05:33:39.159Z,1.59
2023-03-01T05:36:07.234Z,1.60
2023-03-01T05:38:36.808Z,1.64
2023-03-01T05:41:03.556Z,1.79
2023-03-01T05:43:35.478Z,1.84
2023-03-01T05:46:02.621Z,1.87
2023-03-01T05:48:29.326Z,1.94
2023-03-01T05:50:58.959Z,1.94
2023-03-01T05:53:25.549Z,1.98
2023-03-01T05:55:52.413Z,1.99
2023-03-01T05:58:22.756Z,2.06
2023-03-01T06:00:49.989Z,1.98
2023-03-01T06:03:18.315Z,2.04
2023-03-01T06:05:45.553Z,1.99
2023-03-01T06:08:12.796Z,2.01
2023-03-01T06:10:40.052Z,1.92
2023-03-01T06:13:06.832Z,2.04
2023-03-01T06:15:33.856Z,2.04
2023-03-01T06:18:03.334Z,2.12
2023-03-01T06:20:30.419Z,2.13
2023-03-01T06:22:57.674Z,2.12
2023-03-01T06:25:27.117Z,2.12
2023-03-01T06:27:53.886Z,2.14
2023-03-01T06:30:22.914Z,2.24
2023-03-01T06:32:50.190Z,2.28
2023-03-01T06:35:23.876Z,2.24
2023-03-01T06:37:50.544Z,2.24
2023-03-01T06:40:17.668Z,2.25
2023-03-01T06:42:50.008Z,2.29
2023-03-01T06:45:18.252Z,2.35
2023-03-01T06:47:44.930Z,2.44
2023-03-01T06:50:12.202Z,2.51
2023-03-01T06:52:39.769Z,2.58
2023-03-01T06:55:07.315Z,2.56
2023-03-01T06:57:34.027Z,2.56
2023-03-01T07:00:00.661Z,2.57
2023-03-01T07:02:27.382Z,2.66
2023-03-01T07:04:56.194Z,2.65
2023-03-01T07:07:25.436Z,2.64
2023-03-01T07:09:54.290Z,2.71
2023-03-01T07:12:20.934Z,2.71
2023-03-01T07:14:47.518Z,2.78
2023-03-01T07:17:16.440Z,2.80
2023-03-01T07:19:43.172Z,2.81
2023-03-01T07:22:11.658Z,2.91
2023-03-01T07:24:40.974Z,2.96
2023-03-01T07:27:07.737Z,2.91
2023-03-01T07:29:40.404Z,2.94
2023-03-01T07:32:07.777Z,3.06
2023-03-01T07:34:37.058Z,3.11
2023-03-01T07:37:03.687Z,3.13
2023-03-01T07:39:30.949Z,3.20
2023-03-01T07:41:58.120Z,3.29
2023-03-01T07:44:34.619Z,3.32
2023-03-01T07:47:01.730Z,3.39
2023-03-01T07:49:28.415Z,3.32
2023-03-01T07:51:55.265Z,3.39
2023-03-01T07:54:21.956Z,3.42
2023-03-01T07:56:48.873Z,3.49
2023-03-01T07:59:15.631Z,3.61
2023-03-01T08:01:42.486Z,3.77
2023-03-01T08:04:12.071Z,3.88
2023-03-01T08:06:47.952Z,3.96
2023-03-01T08:09:14.574Z,4.08
2023-03-01T08:11:41.224Z,4.10
2023-03-01T08:14:07.847Z,4.04
2023-03-01T08:16:40.481Z,4.15
2023-03-01T08:19:11.796Z,4.18
2023-03-01T08:21:41.591Z,4.21
2023-03-01T08:24:09.041Z,4.23
2023-03-01T08:26:35.820Z,4.31
2023-03-01T08:29:02.619Z,4.35
2023-03-01T08:31:38.625Z,4.46
2023-03-01T08:34:21.453Z,4.57
2023-03-01T08:36:54.168Z,4.68
2023-03-01T08:39:21.437Z,4.75
2023-03-01T08:41:54.473Z,4.87
2023-03-01T08:44:22.057Z,4.97
2023-03-01T08:49:35.730Z,5.28
2023-03-01T08:52:08.599Z,5.30
2023-03-01T08:54:35.108Z,5.25
2023-03-01T08:57:04.339Z,5.19
2023-03-01T08:59:31.096Z,5.31
2023-03-01T09:01:57.608Z,5.32
2023-03-01T09:04:29.738Z,5.38
2023-03-01T09:06:56.373Z,5.29
2023-03-01T09:09:23.135Z,5.37
2023-03-01T09:11:54.825Z,5.37
2023-03-01T09:14:21.345Z,5.30
2023-03-01T09:16:47.971Z,5.16
2023-03-01T09:19:15.042Z,5.05
2023-03-01T09:21:41.642Z,4.96
2023-03-01T09:24:14.216Z,4.90
2023-03-01T09:26:40.763Z,4.85
2023-03-01T09:29:07.244Z,4.83
2023-03-01T09:31:33.801Z,4.93
2023-03-01T09:34:00.248Z,4.96
2023-03-01T09:36:26.913Z,5.02
2023-03-01T09:39:01.410Z,5.06
2023-03-01T09:41:39.703Z,5.18
2023-03-01T09:44:12.028Z,5.34
2023-03-01T09:46:42.751Z,5.52
2023-03-01T09:49:20.396Z,5.71
2023-03-01T09:51:54.989Z,5.84
2023-03-01T09:54:21.543Z,6.06
2023-03-01T09:56:54.490Z,6.08
2023-03-01T09:59:27.080Z,6.15
2023-03-01T10:01:56.475Z,6.06
2023-03-01T10:04:47.642Z,6.17
2023-03-01T10:07:33.333Z,6.35
2023-03-01T10:10:05.629Z,6.62
2023-03-01T10:12:47.226Z,6.71
2023-03-01T10:15:13.971Z,6.79
2023-03-01T10:17:46.220Z,6.71
2023-03-01T10:20:19.958Z,6.91
2023-03-01T10:22:53.311Z,7.12
2023-03-01T10:25:46.291Z,7.31
2023-03-01T10:28:18.651Z,7.41
2023-03-01T10:30:46.129Z,7.51
2023-03-01T10:33:26.266Z,7.56
2023-03-01T10:35:53.212Z,7.72
2023-03-01T10:38:24.498Z,7.70
2023-03-01T10:41:02.309Z,7.96
2023-03-01T10:43:49.031Z,7.99
2023-03-01T10:46:26.237Z,7.94
2023-03-01T10:49:06.872Z,8.39
2023-03-01T10:51:34.617Z,8.47
2023-03-01T10:54:01.876Z,8.63
2023-03-01T10:56:28.391Z,8.79
2023-03-01T10:59:01.045Z,8.75
2023-03-01T11:01:31.002Z,8.95
2023-03-01T11:04:24.134Z,9.01
2023-03-01T11:06:59.033Z,9.11
2023-03-01T11:09:28.922Z,9.12
2023-03-01T11:11:56.756Z,9.16
2023-03-01T11:14:28.030Z,9.10
2023-03-01T11:17:14.884Z,9.08
2023-03-01T11:19:48.838Z,9.20
2023-03-01T11:22:22.228Z,9.25
2023-03-01T11:24:57.369Z,9.27
2023-03-01T11:27:29.758Z,9.15
2023-03-01T11:30:14.223Z,9.02
2023-03-01T11:32:48.084Z,8.77
2023-03-01T11:35:17.620Z,8.92
2023-03-01T11:37:56.156Z,8.99
2023-03-01T11:40:28.563Z,8.81
2023-03-01T11:43:24.185Z,8.71
2023-03-01T11:46:12.937Z,8.71
2023-03-01T11:49:00.146Z,8.75
2023-03-01T11:51:39.603Z,8.76
2023-03-01T11:54:11.160Z,8.61
2023-03-01T11:57:00.885Z,8.57
2023-03-01T11:59:36.421Z,8.58
2023-03-01T12:02:06.347Z,8.52
2023-03-01T12:04:32.880Z,8.41
2023-03-01T12:06:59.438Z,8.48
2023-03-01T12:09:39.444Z,8.38
2023-03-01T12:12:24.862Z,8.36
2023-03-01T12:15:07.097Z,8.25
2023-03-01T12:17:43.031Z,8.34
2023-03-01T12:20:24.335Z,8.34
2023-03-01T12:22:52.166Z,8.35
2023-03-01T12:25:30.864Z,8.44
2023-03-01T12:28:16.178Z,8.45
2023-03-01T12:30:51.687Z,8.45
2023-03-01T12:33:29.714Z,8.50
2023-03-01T12:36:02.247Z,8.39
2023-03-01T12:38:38.603Z,8.34
2023-03-01T12:41:25.973Z,8.32
2023-03-01T12:43:59.372Z,8.24
2023-03-01T12:46:47.820Z,8.27
2023-03-01T12:49:17.122Z,8.35
2023-03-01T12:51:50.208Z,8.40
2023-03-01T12:54:18.065Z,8.38
2023-03-01T12:56:56.488Z,8.35
2023-03-01T12:59:29.014Z,8.28
2023-03-01T13:02:02.009Z,8.28
2023-03-01T13:04:43.518Z,8.38
2023-03-01T13:07:23.893Z,8.52
2023-03-01T13:09:56.616Z,8.46
2023-03-01T13:12:41.746Z,8.43
2023-03-01T13:15:25.702Z,8.49
2023-03-01T13:17:59.764Z,8.50
2023-03-01T13:20:44.918Z,8.52
2023-03-01T13:23:21.468Z,8.57
2023-03-01T13:26:00.161Z,8.53
2023-03-01T13:28:32.659Z,8.41
2023-03-01T13:30:59.758Z,8.41
2023-03-01T13:33:29.064Z,8.40
2023-03-01T13:35:59.523Z,8.47
2023-03-01T13:38:44.739Z,8.52
2023-03-01T13:41:11.299Z,8.51
2023-03-01T13:43:40.680Z,8.52
2023-03-01T13:46:19.684Z,8.53
2023-03-01T13:48:49.011Z,8.58
2023-03-01T13:51:23.972Z,8.56
2023-03-01T13:53:53.394Z,8.57
2023-03-01T13:56:27.051Z,8.51
2023-03-01T13:58:54.981Z,8.40
2023-03-01T14:01:23.500Z,8.36
2023-03-01T14:03:53.937Z,8.28
2023-03-01T14:06:25.302Z,8.27
2023-03-01T14:08:53.664Z,8.31
2023-03-01T14:11:38.636Z,8.29
2023-03-01T14:14:27.111Z,8.24
2023-03-01T14:16:56.494Z,8.30
2023-03-01T14:19:34.234Z,8.38
2023-03-01T14:22:08.698Z,8.33
2023-03-01T14:27:04.727Z,8.33
2023-03-01T14:29:38.450Z,8.27
2023-03-01T14:33:28.976Z,8.29
2023-03-01T14:36:01.390Z,8.27
2023-03-01T14:39:51.528Z,8.16
2023-03-01T14:42:19.171Z,8.18
2023-03-01T14:53:50.273Z,7.85
2023-03-01T14:56:21.417Z,7.84
2023-03-01T14:58:51.906Z,7.82
2023-03-01T15:01:19.342Z,7.82
2023-03-01T15:03:50.999Z,7.86
2023-03-01T15:06:23.833Z,7.87
2023-03-01T15:08:54.996Z,7.86
2023-03-01T15:11:29.293Z,7.82
2023-03-01T15:13:56.206Z,7.81
2023-03-01T15:16:31.632Z,7.77
2023-03-01T15:19:00.358Z,7.75
2023-03-01T15:21:37.283Z,7.79
2023-03-01T15:24:13.165Z,7.75
2023-03-01T15:26:44.689Z,7.71
2023-03-01T15:29:23.157Z,7.66
2023-03-01T15:32:16.639Z,7.64
2023-03-01T15:34:48.717Z,7.64
2023-03-01T15:37:39.868Z,7.66
2023-03-01T15:40:54.918Z,7.61
2023-03-01T15:43:43.853Z,7.54
2023-03-01T15:46:20.007Z,7.58
2023-03-01T15:48:47.734Z,7.55
2023-03-01T15:51:23.259Z,7.48
2023-03-01T15:53:54.590Z,7.49
2023-03-01T15:56:21.487Z,7.42
2023-03-01T15:58:48.043Z,7.44
2023-03-01T16:01:15.636Z,7.40
2023-03-01T16:03:42.704Z,7.35
2023-03-01T16:06:12.970Z,7.31
2023-03-01T16:08:39.498Z,7.29
2023-03-01T16:11:06.871Z,7.29
2023-03-01T16:13:33.449Z,7.21
2023-03-01T16:16:04.578Z,7.16
2023-03-01T16:18:31.191Z,7.17
2023-03-01T16:20:57.719Z,7.16
2023-03-01T16:23:26.015Z,7.15
2023-03-01T16:25:52.587Z,7.20
2023-03-01T16:28:19.153Z,7.25
2023-03-01T16:30:52.386Z,7.22
2023-03-01T16:33:29.423Z,7.20
2023-03-01T16:36:03.416Z,7.18
2023-03-01T16:38:30.153Z,7.16
2023-03-01T16:40:59.676Z,7.11
2023-03-01T16:43:26.971Z,7.08
2023-03-01T16:45:53.519Z,7.11
2023-03-01T16:48:20.136Z,7.06
2023-03-01T16:50:48.188Z,6.96
2023-03-01T16:53:14.880Z,6.93
2023-03-01T16:55:46.413Z,6.95
2023-03-01T16:58:13.169Z,6.92
2023-03-01T17:00:39.696Z,6.92
2023-03-01T17:03:06.180Z,6.87
2023-03-01T17:05:32.680Z,6.82
2023-03-01T17:08:00.929Z,6.83
2023-03-01T17:10:27.524Z,6.76
2023-03-01T17:12:54.826Z,6.74
2023-03-01T17:15:21.390Z,6.75
2023-03-01T17:17:51.886Z,6.82
2023-03-01T17:20:18.678Z,6.71
2023-03-01T17:22:45.236Z,6.71
2023-03-01T17:25:11.904Z,6.71
2023-03-01T17:27:41.522Z,6.72
2023-03-01T17:30:13.459Z,6.64
2023-03-01T17:32:40.484Z,6.63
2023-03-01T17:35:12.794Z,6.56
2023-03-01T17:37:39.947Z,6.54
2023-03-01T17:40:06.817Z,6.57
2023-03-01T17:42:33.512Z,6.58
2023-03-01T17:45:00.824Z,6.62
2023-03-01T17:47:28.882Z,6.60
2023-03-01T17:49:56.960Z,6.54
2023-03-01T17:52:26.629Z,6.54
2023-03-01T17:54:53.151Z,6.55
2023-03-01T17:57:19.710Z,6.49
2023-03-01T17:59:48.927Z,6.54
2023-03-01T18:02:15.537Z,6.52
2023-03-01T18:04:42.172Z,6.46
2023-03-01T18:07:08.638Z,6.46
2023-03-01T18:09:35.231Z,6.39
2023-03-01T18:12:04.734Z,6.38
2023-03-01T18:14:34.055Z,6.40
2023-03-01T18:17:03.412Z,6.41
2023-03-01T18:19:30.130Z,6.38
2023-03-01T18:21:56.927Z,6.44
2023-03-01T18:24:23.889Z,6.44
2023-03-01T18:26:50.591Z,6.38
2023-03-01T18:29:19.490Z,6.34
2023-03-01T18:31:46.283Z,6.30
2023-03-01T18:34:13.019Z,6.34
2023-03-01T18:36:41.473Z,6.39
2023-03-01T18:39:08.459Z,6.37
2023-03-01T18:41:36.025Z,6.36
2023-03-01T18:44:05.602Z,6.33
2023-03-01T18:46:34.174Z,6.33
2023-03-01T18:49:01.867Z,6.30
2023-03-01T18:51:31.972Z,6.31
2023-03-01T18:53:58.834Z,6.29
2023-03-01T18:56:25.902Z,6.28
2023-03-01T18:59:00.487Z,6.28
2023-03-01T19:01:28.600Z,6.25
2023-03-01T19:03:56.379Z,6.23
2023-03-01T19:06:23.800Z,6.26
2023-03-01T19:08:52.659Z,6.31
2023-03-01T19:11:20.265Z,6.30
2023-03-01T19:13:47.441Z,6.27
2023-03-01T19:16:18.320Z,6.23
2023-03-01T19:18:50.381Z,6.17
2023-03-01T19:21:20.743Z,6.14
2023-03-01T19:23:48.781Z,6.16
2023-03-01T19:26:21.945Z,6.23
2023-03-01T19:28:48.622Z,6.25
2023-03-01T19:31:16.858Z,6.22
2023-03-01T19:33:43.529Z,6.29
2023-03-01T19:36:12.719Z,6.25
2023-03-01T19:38:42.358Z,6.29
2023-03-01T19:41:10.660Z,6.22
2023-03-01T19:43:37.413Z,6.14
2023-03-01T19:46:04.414Z,6.05
2023-03-01T19:48:31.210Z,6.05
2023-03-01T19:50:58.801Z,6.14
2023-03-01T19:53:25.338Z,6.13
2023-03-01T19:55:58.286Z,6.07
2023-03-01T19:58:25.119Z,6.01
2023-03-01T20:00:58.521Z,6.02
2023-03-01T20:03:27.388Z,5.96
2023-03-01T20:05:54.151Z,5.97
2023-03-01T20:08:20.654Z,5.99
2023-03-01T20:10:47.277Z,5.92
2023-03-01T20:13:16.782Z,5.91
2023-03-01T20:15:44.051Z,5.90
2023-03-01T20:18:11.565Z,5.93
2023-03-01T20:20:38.632Z,5.95
2023-03-01T20:23:07.118Z,5.92
2023-03-01T20:25:36.803Z,5.90
2023-03-01T20:28:06.311Z,5.90
2023-03-01T20:30:32.809Z,5.94
2023-03-01T20:32:59.395Z,5.97
2023-03-01T20:35:25.990Z,5.93
2023-03-01T20:37:54.069Z,5.90
2023-03-01T20:40:21.503Z,5.94
2023-03-01T20:42:48.133Z,5.94
2023-03-01T20:45:14.844Z,5.92
2023-03-01T20:47:41.395Z,5.86
2023-03-01T20:50:08.072Z,5.78
2023-03-01T20:52:45.723Z,5.77
2023-03-01T20:55:13.774Z,5.85
2023-03-01T20:57:40.344Z,5.90
2023-03-01T21:00:07.226Z,5.87
2023-03-01T21:02:33.768Z,5.89
2023-03-01T21:05:01.525Z,5.90
2023-03-01T21:07:31.153Z,5.86
2023-03-01T21:10:03.523Z,5.80
2023-03-01T21:12:30.578Z,5.80
2023-03-01T21:14:57.129Z,5.76
2023-03-01T21:17:23.714Z,5.77
2023-03-01T21:19:50.793Z,5.76
2023-03-01T21:22:17.577Z,5.72
2023-03-01T21:24:44.163Z,5.74
2023-03-01T21:27:11.227Z,5.73
2023-03-01T21:29:41.403Z,5.75
2023-03-01T21:32:08.967Z,5.73
2023-03-01T21:34:39.316Z,5.67
2023-03-01T21:37:06.366Z,5.61
2023-03-01T21:39:33.180Z,5.63
2023-03-01T21:42:01.121Z,5.65
2023-03-01T21:44:29.239Z,5.63
2023-03-01T21:46:56.107Z,5.58
2023-03-01T21:49:24.556Z,5.56
2023-03-01T21:51:51.126Z,5.54
2023-03-01T21:54:19.682Z,5.52
2023-03-01T21:56:47.196Z,5.49
2023-03-01T21:59:15.541Z,5.44
2023-03-01T22:01:42.372Z,5.47
2023-03-01T22:04:09.020Z,5.47
2023-03-01T22:06:40.680Z,5.52
2023-03-01T22:09:09.200Z,5.45
2023-03-01T22:11:37.358Z,5.41
2023-03-01T22:14:04.912Z,5.43
2023-03-01T22:16:33.037Z,5.43
2023-03-01T22:18:59.778Z,5.44
2023-03-01T22:21:34.603Z,5.43
2023-03-01T22:24:04.475Z,5.42
2023-03-01T22:26:42.245Z,5.45
2023-03-01T22:29:13.866Z,5.45
2023-03-01T22:31:41.280Z,5.43
2023-03-01T22:34:08.137Z,5.44
2023-03-01T22:36:37.395Z,5.43
2023-03-01T22:39:04.418Z,5.47
2023-03-01T22:41:38.551Z,5.48
2023-03-01T22:44:05.128Z,5.45
2023-03-01T22:46:32.169Z,5.47
2023-03-01T22:48:58.915Z,5.50
2023-03-01T22:51:27.047Z,5.44
2023-03-01T22:53:53.970Z,5.49
2023-03-01T22:56:22.159Z,5.48
2023-03-01T22:58:49.031Z,5.44
2023-03-01T23:01:17.119Z,5.45
2023-03-01T23:03:43.730Z,5.42
2023-03-01T23:06:10.945Z,5.39
2023-03-01T23:08:37.499Z,5.40
2023-03-01T23:11:07.593Z,5.43
2023-03-01T23:13:34.125Z,5.45
2023-03-01T23:16:00.746Z,5.47
2023-03-01T23:18:27.354Z,5.37
2023-03-01T23:20:53.930Z,5.35
2023-03-01T23:23:20.416Z,5.38
2023-03-01T23:26:02.068Z,5.37
2023-03-01T23:28:29.885Z,5.32
2023-03-01T23:30:57.690Z,5.36
2023-03-01T23:33:24.841Z,5.31
2023-03-01T23:35:52.783Z,5.27
2023-03-01T23:38:20.650Z,5.22
2023-03-01T23:40:47.615Z,5.22
2023-03-01T23:43:14.452Z,5.19
2023-03-01T23:45:43.889Z,5.15
2023-03-01T23:48:13.677Z,5.14
2023-03-01T23:50:44.182Z,5.15
2023-03-01T23:53:16.963Z,5.19
2023-03-01T23:55:51.278Z,5.23
2023-03-01T23:58:20.101Z,5.26
